Metar
Geneve

LSGG 121620Z 27003KT CAVOK 03/M02 Q1002 NOSIG

Payerne

LSMP 121620Z AUTO 22004KT 190V250 9999NDV ////// 03/M01 Q1002 RMK MIS

Eplatures

LSGC 121620Z AUTO 23006KT 180V260 CAVOK M02/M06 Q0999

Berne

LSZB 121620Z 00000KT 9999 BKN130 02/M03 Q1002 NOSIG

Granges

LSZG 121620Z AUTO VRB01KT 9999 NSC 02/M01 Q1002

Sion

LSGS 121620Z AUTO VRB01KT 9999 FEW130 03/M04 Q1003

Annecy

LFLP 121630Z AUTO 16005KT 130V200 CAVOK 03/M02 Q1002 NOSIG

Taf
Geneve

TAF TAF LSGG 121425Z 1215/1321 23012KT 9999 FEW030 TX05/1215Z TN02/1303Z TX07/1313Z BECMG 1219/1221 4000 SNRA SCT010TCU BKN014 BECMG 1300/1302 SHRA TEMPO 1306/1321 22015G30KT BECMG 1315/1318 NSW BKN030

Eplatures

TAF AMD TAF AMD LSGC 270646Z 2706/2718 VRB03KT 9000 OVC015 BECMG 2712/2715 9999 SCT020

Berne

TAF AMD TAF AMD LSZB 222054Z 2220/2224 CNL

Granges

TAF AMD LSZG 222054Z 2220/2224 CNL

Sion

TAF AMD LSGS 242023Z 2415/2424 CNL

Annecy

TAF LFLP 121400Z 1215/1315 22005KT CAVOK BECMG 1220/1222 -RA OVC020 PROB40 TEMPO 1221/1223 3000 SNRA BKN010 TEMPO 1301/1309 4000 RA BR PROB30 TEMPO 1307/1309 22015G25KT 2500 SHRA BKN012 FEW015CB BKN025 FM130900 24015G25KT 9999 SCT020TCU BKN035 TEMPO 1309/1315 4000 SHRA FEW015CB BKN035TCU BECMG 1311/1313 23010KT